sensor_id;sensor_type;location;lat;lon;timestamp;P1;durP1;ratioP1;P2;durP2;ratioP2
56299;SDS011;42209;6.376;-10.782;2023-05-07T00:00:02;8.18;;;6.32;;
56299;SDS011;42209;6.376;-10.782;2023-05-07T00:02:33;8.30;;;6.18;;
56299;SDS011;42209;6.376;-10.782;2023-05-07T00:05:03;7.28;;;6.13;;
56299;SDS011;42209;6.376;-10.782;2023-05-07T00:09:59;8.38;;;5.15;;
56299;SDS011;42209;6.376;-10.782;2023-05-07T00:12:28;6.13;;;5.47;;
56299;SDS011;42209;6.376;-10.782;2023-05-07T00:17:24;8.33;;;5.87;;
56299;SDS011;42209;6.376;-10.782;2023-05-07T00:19:53;9.55;;;6.90;;
56299;SDS011;42209;6.376;-10.782;2023-05-07T00:22:21;6.15;;;5.20;;
56299;SDS011;42209;6.376;-10.782;2023-05-07T00:24:49;7.05;;;5.45;;
56299;SDS011;42209;6.376;-10.782;2023-05-07T00:27:18;6.82;;;5.63;;
56299;SDS011;42209;6.376;-10.782;2023-05-07T00:29:46;7.13;;;5.75;;
56299;SDS011;42209;6.376;-10.782;2023-05-07T00:32:14;7.45;;;5.90;;
56299;SDS011;42209;6.376;-10.782;2023-05-07T00:34:43;6.43;;;5.50;;
56299;SDS011;42209;6.376;-10.782;2023-05-07T00:37:11;8.15;;;5.15;;
56299;SDS011;42209;6.376;-10.782;2023-05-07T00:39:40;6.82;;;5.13;;
56299;SDS011;42209;6.376;-10.782;2023-05-07T00:42:08;6.18;;;4.90;;
56299;SDS011;42209;6.376;-10.782;2023-05-07T00:44:36;5.70;;;4.85;;
56299;SDS011;42209;6.376;-10.782;2023-05-07T00:47:05;7.82;;;5.18;;
56299;SDS011;42209;6.376;-10.782;2023-05-07T00:49:43;5.40;;;4.47;;
56299;SDS011;42209;6.376;-10.782;2023-05-07T00:52:15;7.20;;;4.60;;
56299;SDS011;42209;6.376;-10.782;2023-05-07T00:54:44;7.18;;;5.13;;
56299;SDS011;42209;6.376;-10.782;2023-05-07T00:57:13;6.28;;;5.15;;
56299;SDS011;42209;6.376;-10.782;2023-05-07T00:59:42;7.85;;;5.78;;
56299;SDS011;42209;6.376;-10.782;2023-05-07T01:02:10;8.57;;;5.10;;
56299;SDS011;42209;6.376;-10.782;2023-05-07T01:04:39;7.05;;;4.88;;
56299;SDS011;42209;6.376;-10.782;2023-05-07T01:07:07;5.70;;;4.60;;
56299;SDS011;42209;6.376;-10.782;2023-05-07T01:09:37;6.22;;;4.75;;
56299;SDS011;42209;6.376;-10.782;2023-05-07T01:12:06;6.50;;;4.95;;
56299;SDS011;42209;6.376;-10.782;2023-05-07T01:14:35;5.78;;;4.40;;
56299;SDS011;42209;6.376;-10.782;2023-05-07T01:17:03;6.15;;;4.35;;
56299;SDS011;42209;6.376;-10.782;2023-05-07T01:19:32;5.88;;;4.93;;
56299;SDS011;42209;6.376;-10.782;2023-05-07T01:22:03;5.57;;;4.25;;
56299;SDS011;42209;6.376;-10.782;2023-05-07T01:24:45;6.05;;;4.68;;
56299;SDS011;42209;6.376;-10.782;2023-05-07T01:27:15;5.20;;;4.43;;
56299;SDS011;42209;6.376;-10.782;2023-05-07T01:29:45;6.60;;;5.15;;
56299;SDS011;42209;6.376;-10.782;2023-05-07T01:32:14;5.25;;;4.60;;
56299;SDS011;42209;6.376;-10.782;2023-05-07T01:34:51;5.28;;;4.55;;
56299;SDS011;42209;6.376;-10.782;2023-05-07T01:37:20;5.45;;;3.92;;
56299;SDS011;42209;6.376;-10.782;2023-05-07T01:39:49;7.05;;;5.25;;
56299;SDS011;42209;6.376;-10.782;2023-05-07T01:42:17;6.22;;;4.80;;
56299;SDS011;42209;6.376;-10.782;2023-05-07T01:44:45;8.98;;;4.50;;
56299;SDS011;42209;6.376;-10.782;2023-05-07T01:47:14;5.57;;;4.35;;
56299;SDS011;42209;6.376;-10.782;2023-05-07T01:49:43;6.72;;;4.63;;
56299;SDS011;42209;6.376;-10.782;2023-05-07T01:52:11;7.80;;;4.95;;
56299;SDS011;42209;6.376;-10.782;2023-05-07T01:54:40;7.45;;;4.95;;
56299;SDS011;42209;6.376;-10.782;2023-05-07T01:57:08;6.00;;;3.75;;
56299;SDS011;42209;6.376;-10.782;2023-05-07T02:02:05;6.72;;;4.90;;
56299;SDS011;42209;6.376;-10.782;2023-05-07T02:04:35;6.65;;;4.70;;
56299;SDS011;42209;6.376;-10.782;2023-05-07T02:07:04;6.18;;;5.07;;
56299;SDS011;42209;6.376;-10.782;2023-05-07T02:09:32;7.22;;;4.63;;
56299;SDS011;42209;6.376;-10.782;2023-05-07T02:12:01;6.32;;;4.63;;
56299;SDS011;42209;6.376;-10.782;2023-05-07T02:14:30;5.10;;;3.97;;
56299;SDS011;42209;6.376;-10.782;2023-05-07T02:16:58;5.25;;;4.53;;
56299;SDS011;42209;6.376;-10.782;2023-05-07T02:19:26;5.07;;;4.57;;
56299;SDS011;42209;6.376;-10.782;2023-05-07T02:21:54;5.30;;;4.32;;
56299;SDS011;42209;6.376;-10.782;2023-05-07T02:24:23;5.63;;;3.92;;
56299;SDS011;42209;6.376;-10.782;2023-05-07T02:26:51;5.28;;;4.13;;
56299;SDS011;42209;6.376;-10.782;2023-05-07T02:29:20;5.20;;;4.30;;
56299;SDS011;42209;6.376;-10.782;2023-05-07T02:31:48;4.38;;;3.95;;
56299;SDS011;42209;6.376;-10.782;2023-05-07T02:34:17;6.50;;;3.95;;
56299;SDS011;42209;6.376;-10.782;2023-05-07T02:36:45;4.15;;;3.65;;
56299;SDS011;42209;6.376;-10.782;2023-05-07T02:39:18;5.60;;;3.50;;
56299;SDS011;42209;6.376;-10.782;2023-05-07T02:41:46;5.78;;;4.00;;
56299;SDS011;42209;6.376;-10.782;2023-05-07T02:44:14;5.13;;;3.83;;
56299;SDS011;42209;6.376;-10.782;2023-05-07T02:46:45;4.38;;;3.40;;
56299;SDS011;42209;6.376;-10.782;2023-05-07T02:49:13;4.78;;;3.33;;
56299;SDS011;42209;6.376;-10.782;2023-05-07T02:51:41;6.70;;;4.30;;
56299;SDS011;42209;6.376;-10.782;2023-05-07T02:54:17;5.38;;;3.72;;
56299;SDS011;42209;6.376;-10.782;2023-05-07T02:56:45;5.45;;;3.45;;
56299;SDS011;42209;6.376;-10.782;2023-05-07T02:59:13;5.40;;;3.53;;
56299;SDS011;42209;6.376;-10.782;2023-05-07T03:01:42;4.63;;;3.85;;
56299;SDS011;42209;6.376;-10.782;2023-05-07T03:04:11;5.38;;;4.30;;
56299;SDS011;42209;6.376;-10.782;2023-05-07T03:06:39;4.43;;;3.72;;
56299;SDS011;42209;6.376;-10.782;2023-05-07T03:09:08;6.60;;;3.00;;
56299;SDS011;42209;6.376;-10.782;2023-05-07T03:11:36;7.40;;;4.38;;
56299;SDS011;42209;6.376;-10.782;2023-05-07T03:14:04;5.45;;;3.95;;
56299;SDS011;42209;6.376;-10.782;2023-05-07T03:16:33;5.35;;;3.05;;
56299;SDS011;42209;6.376;-10.782;2023-05-07T03:19:01;5.38;;;3.83;;
56299;SDS011;42209;6.376;-10.782;2023-05-07T03:21:29;4.53;;;3.58;;
56299;SDS011;42209;6.376;-10.782;2023-05-07T03:23:58;5.63;;;3.60;;
56299;SDS011;42209;6.376;-10.782;2023-05-07T03:26:26;4.72;;;3.17;;
56299;SDS011;42209;6.376;-10.782;2023-05-07T03:31:23;6.65;;;4.03;;
56299;SDS011;42209;6.376;-10.782;2023-05-07T03:36:21;5.50;;;3.60;;
56299;SDS011;42209;6.376;-10.782;2023-05-07T03:38:50;4.35;;;3.28;;
56299;SDS011;42209;6.376;-10.782;2023-05-07T03:41:22;4.93;;;3.85;;
56299;SDS011;42209;6.376;-10.782;2023-05-07T03:43:50;4.25;;;3.30;;
56299;SDS011;42209;6.376;-10.782;2023-05-07T03:46:19;4.78;;;2.85;;
56299;SDS011;42209;6.376;-10.782;2023-05-07T03:48:47;4.22;;;3.58;;
56299;SDS011;42209;6.376;-10.782;2023-05-07T03:51:18;7.13;;;4.00;;
56299;SDS011;42209;6.376;-10.782;2023-05-07T03:53:47;4.15;;;3.15;;
56299;SDS011;42209;6.376;-10.782;2023-05-07T03:56:15;4.53;;;3.13;;
56299;SDS011;42209;6.376;-10.782;2023-05-07T03:58:47;4.75;;;3.15;;
56299;SDS011;42209;6.376;-10.782;2023-05-07T04:01:15;3.80;;;3.15;;
56299;SDS011;42209;6.376;-10.782;2023-05-07T04:03:43;4.28;;;3.28;;
56299;SDS011;42209;6.376;-10.782;2023-05-07T04:06:12;3.13;;;2.65;;
56299;SDS011;42209;6.376;-10.782;2023-05-07T04:08:43;4.85;;;2.97;;
56299;SDS011;42209;6.376;-10.782;2023-05-07T04:11:12;5.03;;;2.95;;
56299;SDS011;42209;6.376;-10.782;2023-05-07T04:13:41;6.30;;;3.70;;
56299;SDS011;42209;6.376;-10.782;2023-05-07T04:16:09;3.15;;;2.63;;
56299;SDS011;42209;6.376;-10.782;2023-05-07T04:21:06;4.53;;;2.92;;
56299;SDS011;42209;6.376;-10.782;2023-05-07T04:23:46;4.55;;;3.28;;
56299;SDS011;42209;6.376;-10.782;2023-05-07T04:26:15;4.13;;;2.95;;
56299;SDS011;42209;6.376;-10.782;2023-05-07T04:28:44;4.28;;;2.75;;
56299;SDS011;42209;6.376;-10.782;2023-05-07T04:31:14;3.88;;;2.65;;
56299;SDS011;42209;6.376;-10.782;2023-05-07T04:33:44;4.53;;;3.33;;
56299;SDS011;42209;6.376;-10.782;2023-05-07T04:36:13;3.75;;;2.30;;
56299;SDS011;42209;6.376;-10.782;2023-05-07T04:38:48;5.03;;;2.88;;
56299;SDS011;42209;6.376;-10.782;2023-05-07T04:41:18;4.13;;;3.00;;
56299;SDS011;42209;6.376;-10.782;2023-05-07T04:43:46;4.30;;;2.58;;
56299;SDS011;42209;6.376;-10.782;2023-05-07T04:46:16;3.67;;;2.75;;
56299;SDS011;42209;6.376;-10.782;2023-05-07T04:48:45;3.92;;;3.05;;
56299;SDS011;42209;6.376;-10.782;2023-05-07T04:51:13;3.63;;;3.15;;
56299;SDS011;42209;6.376;-10.782;2023-05-07T04:53:41;4.55;;;2.90;;
56299;SDS011;42209;6.376;-10.782;2023-05-07T04:56:10;3.85;;;2.88;;
56299;SDS011;42209;6.376;-10.782;2023-05-07T04:58:41;4.32;;;2.67;;
56299;SDS011;42209;6.376;-10.782;2023-05-07T05:03:38;3.10;;;2.42;;
56299;SDS011;42209;6.376;-10.782;2023-05-07T05:06:07;4.22;;;2.85;;
56299;SDS011;42209;6.376;-10.782;2023-05-07T05:08:35;3.10;;;2.63;;
56299;SDS011;42209;6.376;-10.782;2023-05-07T05:11:04;5.75;;;2.92;;
56299;SDS011;42209;6.376;-10.782;2023-05-07T05:13:35;3.40;;;2.83;;
56299;SDS011;42209;6.376;-10.782;2023-05-07T05:16:15;3.78;;;2.40;;
56299;SDS011;42209;6.376;-10.782;2023-05-07T05:18:44;4.95;;;2.72;;
56299;SDS011;42209;6.376;-10.782;2023-05-07T05:21:14;5.63;;;2.97;;
56299;SDS011;42209;6.376;-10.782;2023-05-07T05:23:45;3.55;;;2.35;;
56299;SDS011;42209;6.376;-10.782;2023-05-07T05:26:18;5.45;;;3.28;;
56299;SDS011;42209;6.376;-10.782;2023-05-07T05:28:46;4.43;;;2.55;;
56299;SDS011;42209;6.376;-10.782;2023-05-07T05:31:17;4.57;;;2.67;;
56299;SDS011;42209;6.376;-10.782;2023-05-07T05:33:48;3.20;;;2.22;;
56299;SDS011;42209;6.376;-10.782;2023-05-07T05:36:16;3.35;;;2.28;;
56299;SDS011;42209;6.376;-10.782;2023-05-07T05:38:46;5.05;;;2.67;;
56299;SDS011;42209;6.376;-10.782;2023-05-07T05:41:15;4.80;;;2.90;;
56299;SDS011;42209;6.376;-10.782;2023-05-07T05:43:44;3.63;;;3.05;;
56299;SDS011;42209;6.376;-10.782;2023-05-07T05:46:12;3.63;;;2.78;;
56299;SDS011;42209;6.376;-10.782;2023-05-07T05:48:40;4.50;;;2.20;;
56299;SDS011;42209;6.376;-10.782;2023-05-07T05:51:10;4.05;;;2.75;;
56299;SDS011;42209;6.376;-10.782;2023-05-07T05:53:38;3.45;;;2.20;;
56299;SDS011;42209;6.376;-10.782;2023-05-07T05:56:07;3.55;;;2.40;;
56299;SDS011;42209;6.376;-10.782;2023-05-07T05:58:39;4.07;;;2.70;;
56299;SDS011;42209;6.376;-10.782;2023-05-07T06:01:08;4.10;;;2.60;;
56299;SDS011;42209;6.376;-10.782;2023-05-07T06:03:36;5.45;;;2.58;;
56299;SDS011;42209;6.376;-10.782;2023-05-07T06:06:11;4.35;;;2.08;;
56299;SDS011;42209;6.376;-10.782;2023-05-07T06:08:40;3.25;;;2.70;;
56299;SDS011;42209;6.376;-10.782;2023-05-07T06:11:12;2.90;;;1.83;;
56299;SDS011;42209;6.376;-10.782;2023-05-07T06:13:43;3.33;;;2.53;;
56299;SDS011;42209;6.376;-10.782;2023-05-07T06:16:12;3.40;;;2.17;;
56299;SDS011;42209;6.376;-10.782;2023-05-07T06:18:40;3.90;;;2.45;;
56299;SDS011;42209;6.376;-10.782;2023-05-07T06:21:09;3.83;;;2.40;;
56299;SDS011;42209;6.376;-10.782;2023-05-07T06:23:37;4.95;;;2.75;;
56299;SDS011;42209;6.376;-10.782;2023-05-07T06:26:07;3.22;;;2.38;;
56299;SDS011;42209;6.376;-10.782;2023-05-07T06:28:39;3.45;;;2.17;;
56299;SDS011;42209;6.376;-10.782;2023-05-07T06:31:11;4.53;;;2.55;;
56299;SDS011;42209;6.376;-10.782;2023-05-07T06:33:49;2.83;;;1.63;;
56299;SDS011;42209;6.376;-10.782;2023-05-07T06:36:18;3.15;;;2.42;;
56299;SDS011;42209;6.376;-10.782;2023-05-07T06:38:47;3.83;;;2.40;;
56299;SDS011;42209;6.376;-10.782;2023-05-07T06:41:15;3.00;;;2.22;;
56299;SDS011;42209;6.376;-10.782;2023-05-07T06:43:43;3.67;;;2.47;;
56299;SDS011;42209;6.376;-10.782;2023-05-07T06:46:30;3.42;;;2.20;;
56299;SDS011;42209;6.376;-10.782;2023-05-07T06:48:58;3.97;;;2.58;;
56299;SDS011;42209;6.376;-10.782;2023-05-07T06:51:27;2.75;;;2.25;;
56299;SDS011;42209;6.376;-10.782;2023-05-07T06:54:00;3.28;;;1.95;;
56299;SDS011;42209;6.376;-10.782;2023-05-07T06:56:29;2.53;;;2.15;;
56299;SDS011;42209;6.376;-10.782;2023-05-07T06:58:59;3.28;;;2.47;;
56299;SDS011;42209;6.376;-10.782;2023-05-07T07:01:33;3.53;;;2.38;;
56299;SDS011;42209;6.376;-10.782;2023-05-07T07:04:03;4.07;;;2.05;;
56299;SDS011;42209;6.376;-10.782;2023-05-07T07:06:32;3.35;;;2.22;;
56299;SDS011;42209;6.376;-10.782;2023-05-07T07:09:03;3.65;;;2.00;;
56299;SDS011;42209;6.376;-10.782;2023-05-07T07:11:31;2.63;;;1.92;;
56299;SDS011;42209;6.376;-10.782;2023-05-07T07:14:00;5.10;;;2.00;;
56299;SDS011;42209;6.376;-10.782;2023-05-07T07:16:31;2.85;;;1.95;;
56299;SDS011;42209;6.376;-10.782;2023-05-07T07:19:00;2.35;;;1.65;;
56299;SDS011;42209;6.376;-10.782;2023-05-07T07:21:29;4.03;;;2.60;;
56299;SDS011;42209;6.376;-10.782;2023-05-07T07:26:26;4.68;;;2.78;;
56299;SDS011;42209;6.376;-10.782;2023-05-07T07:28:54;4.18;;;2.72;;
56299;SDS011;42209;6.376;-10.782;2023-05-07T07:31:23;4.35;;;2.38;;
56299;SDS011;42209;6.376;-10.782;2023-05-07T07:33:51;3.80;;;1.83;;
56299;SDS011;42209;6.376;-10.782;2023-05-07T07:36:20;3.80;;;2.20;;
56299;SDS011;42209;6.376;-10.782;2023-05-07T07:38:55;2.90;;;1.73;;
56299;SDS011;42209;6.376;-10.782;2023-05-07T07:41:23;4.28;;;2.47;;
56299;SDS011;42209;6.376;-10.782;2023-05-07T07:43:51;3.20;;;2.08;;
56299;SDS011;42209;6.376;-10.782;2023-05-07T07:46:20;2.85;;;2.15;;
56299;SDS011;42209;6.376;-10.782;2023-05-07T07:48:49;2.58;;;1.90;;
56299;SDS011;42209;6.376;-10.782;2023-05-07T07:51:17;3.45;;;1.85;;
56299;SDS011;42209;6.376;-10.782;2023-05-07T07:53:46;3.55;;;2.28;;
56299;SDS011;42209;6.376;-10.782;2023-05-07T07:56:14;3.20;;;2.10;;
56299;SDS011;42209;6.376;-10.782;2023-05-07T07:58:42;3.22;;;1.98;;
56299;SDS011;42209;6.376;-10.782;2023-05-07T08:03:41;2.35;;;2.00;;
56299;SDS011;42209;6.376;-10.782;2023-05-07T08:06:11;2.50;;;2.08;;
56299;SDS011;42209;6.376;-10.782;2023-05-07T08:08:41;3.00;;;2.40;;
56299;SDS011;42209;6.376;-10.782;2023-05-07T08:11:10;3.47;;;2.25;;
56299;SDS011;42209;6.376;-10.782;2023-05-07T08:13:39;3.47;;;1.73;;
56299;SDS011;42209;6.376;-10.782;2023-05-07T08:16:07;3.92;;;2.50;;
56299;SDS011;42209;6.376;-10.782;2023-05-07T08:18:37;2.00;;;1.58;;
56299;SDS011;42209;6.376;-10.782;2023-05-07T08:21:05;3.67;;;2.28;;
56299;SDS011;42209;6.376;-10.782;2023-05-07T08:23:34;2.92;;;2.17;;
56299;SDS011;42209;6.376;-10.782;2023-05-07T08:26:03;3.65;;;1.83;;
56299;SDS011;42209;6.376;-10.782;2023-05-07T08:28:33;4.22;;;2.03;;
56299;SDS011;42209;6.376;-10.782;2023-05-07T08:33:34;3.15;;;2.22;;
56299;SDS011;42209;6.376;-10.782;2023-05-07T08:36:02;2.13;;;1.55;;
56299;SDS011;42209;6.376;-10.782;2023-05-07T08:38:31;4.18;;;2.28;;
56299;SDS011;42209;6.376;-10.782;2023-05-07T08:43:30;3.97;;;2.40;;
56299;SDS011;42209;6.376;-10.782;2023-05-07T08:46:03;4.25;;;2.17;;
56299;SDS011;42209;6.376;-10.782;2023-05-07T08:48:39;3.13;;;2.47;;
56299;SDS011;42209;6.376;-10.782;2023-05-07T08:51:12;3.95;;;2.80;;
56299;SDS011;42209;6.376;-10.782;2023-05-07T08:53:43;2.22;;;1.50;;
56299;SDS011;42209;6.376;-10.782;2023-05-07T08:56:16;3.15;;;2.03;;
56299;SDS011;42209;6.376;-10.782;2023-05-07T08:58:49;2.95;;;1.90;;
56299;SDS011;42209;6.376;-10.782;2023-05-07T09:01:17;5.47;;;2.58;;
56299;SDS011;42209;6.376;-10.782;2023-05-07T09:03:50;3.15;;;2.05;;
56299;SDS011;42209;6.376;-10.782;2023-05-07T09:06:21;4.45;;;2.10;;
56299;SDS011;42209;6.376;-10.782;2023-05-07T09:08:52;5.32;;;2.50;;
56299;SDS011;42209;6.376;-10.782;2023-05-07T09:11:25;5.00;;;2.20;;
56299;SDS011;42209;6.376;-10.782;2023-05-07T09:13:56;5.82;;;2.15;;
56299;SDS011;42209;6.376;-10.782;2023-05-07T09:16:25;2.65;;;1.73;;
56299;SDS011;42209;6.376;-10.782;2023-05-07T09:18:57;4.95;;;2.35;;
56299;SDS011;42209;6.376;-10.782;2023-05-07T09:21:27;6.28;;;1.98;;
56299;SDS011;42209;6.376;-10.782;2023-05-07T09:23:58;3.88;;;2.50;;
56299;SDS011;42209;6.376;-10.782;2023-05-07T09:26:33;3.17;;;1.92;;
56299;SDS011;42209;6.376;-10.782;2023-05-07T09:29:04;4.80;;;1.90;;
56299;SDS011;42209;6.376;-10.782;2023-05-07T09:31:36;5.07;;;2.20;;
56299;SDS011;42209;6.376;-10.782;2023-05-07T09:34:07;3.78;;;2.28;;
56299;SDS011;42209;6.376;-10.782;2023-05-07T09:36:39;3.88;;;2.28;;
56299;SDS011;42209;6.376;-10.782;2023-05-07T09:39:07;4.18;;;2.40;;
56299;SDS011;42209;6.376;-10.782;2023-05-07T09:41:45;3.53;;;2.05;;
56299;SDS011;42209;6.376;-10.782;2023-05-07T09:44:21;3.33;;;2.05;;
56299;SDS011;42209;6.376;-10.782;2023-05-07T09:46:53;3.28;;;2.35;;
56299;SDS011;42209;6.376;-10.782;2023-05-07T09:49:30;3.95;;;2.08;;
56299;SDS011;42209;6.376;-10.782;2023-05-07T09:52:06;3.53;;;2.22;;
56299;SDS011;42209;6.376;-10.782;2023-05-07T09:54:37;2.28;;;1.90;;
56299;SDS011;42209;6.376;-10.782;2023-05-07T09:57:06;2.85;;;2.20;;
56299;SDS011;42209;6.376;-10.782;2023-05-07T09:59:37;3.05;;;2.40;;
56299;SDS011;42209;6.376;-10.782;2023-05-07T10:02:10;4.07;;;2.25;;
56299;SDS011;42209;6.376;-10.782;2023-05-07T10:04:46;4.30;;;2.58;;
56299;SDS011;42209;6.376;-10.782;2023-05-07T10:07:20;3.13;;;2.65;;
56299;SDS011;42209;6.376;-10.782;2023-05-07T10:09:52;4.43;;;2.70;;
56299;SDS011;42209;6.376;-10.782;2023-05-07T10:12:29;4.28;;;2.97;;
56299;SDS011;42209;6.376;-10.782;2023-05-07T10:14:58;4.53;;;3.03;;
56299;SDS011;42209;6.376;-10.782;2023-05-07T10:17:27;5.63;;;2.58;;
56299;SDS011;42209;6.376;-10.782;2023-05-07T10:19:56;3.15;;;2.53;;
56299;SDS011;42209;6.376;-10.782;2023-05-07T10:24:53;7.03;;;2.97;;
56299;SDS011;42209;6.376;-10.782;2023-05-07T10:27:27;6.70;;;3.13;;
56299;SDS011;42209;6.376;-10.782;2023-05-07T10:34:02;7.38;;;3.50;;
56299;SDS011;42209;6.376;-10.782;2023-05-07T10:36:38;7.93;;;3.05;;
56299;SDS011;42209;6.376;-10.782;2023-05-07T10:41:02;7.85;;;3.25;;
56299;SDS011;42209;6.376;-10.782;2023-05-07T10:43:43;10.35;;;3.67;;
56299;SDS011;42209;6.376;-10.782;2023-05-07T10:48:16;6.43;;;3.55;;
56299;SDS011;42209;6.376;-10.782;2023-05-07T11:02:00;6.90;;;3.47;;
56299;SDS011;42209;6.376;-10.782;2023-05-07T11:04:39;7.43;;;3.85;;
56299;SDS011;42209;6.376;-10.782;2023-05-07T11:07:21;6.10;;;4.00;;
56299;SDS011;42209;6.376;-10.782;2023-05-07T11:09:57;5.60;;;3.25;;
56299;SDS011;42209;6.376;-10.782;2023-05-07T11:15:33;5.90;;;3.80;;
56299;SDS011;42209;6.376;-10.782;2023-05-07T11:18:26;9.35;;;3.83;;
56299;SDS011;42209;6.376;-10.782;2023-05-07T11:24:27;6.65;;;3.92;;
56299;SDS011;42209;6.376;-10.782;2023-05-07T11:26:59;4.32;;;3.25;;
56299;SDS011;42209;6.376;-10.782;2023-05-07T11:29:29;5.55;;;3.33;;
56299;SDS011;42209;6.376;-10.782;2023-05-07T11:32:04;6.50;;;3.65;;
56299;SDS011;42209;6.376;-10.782;2023-05-07T11:34:42;6.28;;;3.33;;
56299;SDS011;42209;6.376;-10.782;2023-05-07T11:37:11;5.82;;;3.50;;
56299;SDS011;42209;6.376;-10.782;2023-05-07T11:39:51;5.97;;;3.65;;
56299;SDS011;42209;6.376;-10.782;2023-05-07T11:42:31;8.45;;;3.70;;
56299;SDS011;42209;6.376;-10.782;2023-05-07T11:45:00;4.90;;;3.53;;
56299;SDS011;42209;6.376;-10.782;2023-05-07T11:47:32;4.30;;;3.17;;
56299;SDS011;42209;6.376;-10.782;2023-05-07T11:50:05;8.15;;;3.90;;
56299;SDS011;42209;6.376;-10.782;2023-05-07T11:52:35;6.63;;;3.88;;
56299;SDS011;42209;6.376;-10.782;2023-05-07T11:55:03;7.20;;;3.67;;
56299;SDS011;42209;6.376;-10.782;2023-05-07T11:57:32;5.80;;;3.50;;
56299;SDS011;42209;6.376;-10.782;2023-05-07T12:00:01;7.28;;;4.32;;
56299;SDS011;42209;6.376;-10.782;2023-05-07T12:05:09;5.43;;;3.55;;
56299;SDS011;42209;6.376;-10.782;2023-05-07T12:07:39;5.57;;;3.13;;
56299;SDS011;42209;6.376;-10.782;2023-05-07T12:10:09;5.93;;;3.08;;
56299;SDS011;42209;6.376;-10.782;2023-05-07T12:12:40;4.07;;;3.13;;
56299;SDS011;42209;6.376;-10.782;2023-05-07T12:15:09;6.32;;;3.60;;
56299;SDS011;42209;6.376;-10.782;2023-05-07T12:17:38;4.95;;;3.17;;
56299;SDS011;42209;6.376;-10.782;2023-05-07T12:20:07;7.25;;;3.45;;
56299;SDS011;42209;6.376;-10.782;2023-05-07T12:22:36;9.98;;;3.60;;
56299;SDS011;42209;6.376;-10.782;2023-05-07T12:27:36;6.53;;;3.08;;
56299;SDS011;42209;6.376;-10.782;2023-05-07T12:30:08;7.75;;;3.75;;
56299;SDS011;42209;6.376;-10.782;2023-05-07T12:32:38;4.28;;;2.80;;
56299;SDS011;42209;6.376;-10.782;2023-05-07T12:35:07;5.93;;;3.00;;
56299;SDS011;42209;6.376;-10.782;2023-05-07T12:37:36;4.68;;;3.22;;
56299;SDS011;42209;6.376;-10.782;2023-05-07T12:42:37;5.53;;;3.03;;
56299;SDS011;42209;6.376;-10.782;2023-05-07T12:45:10;8.50;;;3.45;;
56299;SDS011;42209;6.376;-10.782;2023-05-07T12:47:47;6.25;;;3.15;;
56299;SDS011;42209;6.376;-10.782;2023-05-07T12:50:15;4.38;;;2.50;;
56299;SDS011;42209;6.376;-10.782;2023-05-07T12:55:16;4.55;;;2.63;;
56299;SDS011;42209;6.376;-10.782;2023-05-07T12:57:48;6.20;;;3.28;;
56299;SDS011;42209;6.376;-10.782;2023-05-07T13:00:17;5.65;;;3.50;;
56299;SDS011;42209;6.376;-10.782;2023-05-07T13:02:59;5.30;;;3.67;;
56299;SDS011;42209;6.376;-10.782;2023-05-07T13:05:28;7.78;;;3.45;;
56299;SDS011;42209;6.376;-10.782;2023-05-07T13:07:56;3.40;;;2.63;;
56299;SDS011;42209;6.376;-10.782;2023-05-07T13:10:25;6.38;;;3.20;;
56299;SDS011;42209;6.376;-10.782;2023-05-07T13:12:54;3.97;;;2.33;;
56299;SDS011;42209;6.376;-10.782;2023-05-07T13:15:23;4.70;;;2.83;;
56299;SDS011;42209;6.376;-10.782;2023-05-07T13:17:51;6.70;;;3.92;;
56299;SDS011;42209;6.376;-10.782;2023-05-07T13:20:19;6.00;;;3.30;;
56299;SDS011;42209;6.376;-10.782;2023-05-07T13:22:48;5.30;;;3.53;;
56299;SDS011;42209;6.376;-10.782;2023-05-07T13:25:17;5.97;;;3.30;;
56299;SDS011;42209;6.376;-10.782;2023-05-07T13:27:45;6.22;;;3.72;;
56299;SDS011;42209;6.376;-10.782;2023-05-07T13:30:28;5.53;;;3.30;;
56299;SDS011;42209;6.376;-10.782;2023-05-07T13:32:57;6.22;;;3.17;;
56299;SDS011;42209;6.376;-10.782;2023-05-07T13:37:54;3.92;;;2.78;;
56299;SDS011;42209;6.376;-10.782;2023-05-07T13:40:22;4.45;;;3.28;;
56299;SDS011;42209;6.376;-10.782;2023-05-07T13:42:51;4.22;;;2.60;;
56299;SDS011;42209;6.376;-10.782;2023-05-07T13:45:19;5.32;;;3.05;;
56299;SDS011;42209;6.376;-10.782;2023-05-07T13:47:48;4.70;;;3.00;;
56299;SDS011;42209;6.376;-10.782;2023-05-07T13:50:16;3.47;;;2.83;;
56299;SDS011;42209;6.376;-10.782;2023-05-07T13:52:44;4.72;;;2.88;;
56299;SDS011;42209;6.376;-10.782;2023-05-07T13:55:13;4.20;;;2.88;;
56299;SDS011;42209;6.376;-10.782;2023-05-07T13:57:41;5.00;;;3.10;;
56299;SDS011;42209;6.376;-10.782;2023-05-07T14:00:10;4.78;;;3.38;;
56299;SDS011;42209;6.376;-10.782;2023-05-07T14:02:42;5.03;;;3.20;;
56299;SDS011;42209;6.376;-10.782;2023-05-07T14:05:11;3.72;;;3.13;;
56299;SDS011;42209;6.376;-10.782;2023-05-07T14:07:49;4.05;;;3.15;;
56299;SDS011;42209;6.376;-10.782;2023-05-07T14:10:19;5.03;;;3.00;;
56299;SDS011;42209;6.376;-10.782;2023-05-07T14:12:47;5.88;;;2.90;;
56299;SDS011;42209;6.376;-10.782;2023-05-07T14:15:16;6.45;;;2.88;;
56299;SDS011;42209;6.376;-10.782;2023-05-07T14:17:45;4.80;;;2.75;;
56299;SDS011;42209;6.376;-10.782;2023-05-07T14:20:13;5.03;;;2.53;;
56299;SDS011;42209;6.376;-10.782;2023-05-07T14:22:42;4.80;;;2.42;;
56299;SDS011;42209;6.376;-10.782;2023-05-07T14:25:10;6.57;;;2.83;;
56299;SDS011;42209;6.376;-10.782;2023-05-07T14:27:39;3.20;;;2.20;;
56299;SDS011;42209;6.376;-10.782;2023-05-07T14:30:08;6.55;;;2.38;;
56299;SDS011;42209;6.376;-10.782;2023-05-07T14:32:36;4.15;;;2.50;;
56299;SDS011;42209;6.376;-10.782;2023-05-07T14:35:05;3.50;;;2.35;;
56299;SDS011;42209;6.376;-10.782;2023-05-07T14:37:33;5.07;;;2.58;;
56299;SDS011;42209;6.376;-10.782;2023-05-07T14:40:02;5.53;;;2.63;;
56299;SDS011;42209;6.376;-10.782;2023-05-07T14:42:30;4.10;;;2.20;;
56299;SDS011;42209;6.376;-10.782;2023-05-07T14:44:59;4.53;;;2.78;;
56299;SDS011;42209;6.376;-10.782;2023-05-07T14:47:29;4.93;;;2.17;;
56299;SDS011;42209;6.376;-10.782;2023-05-07T14:49:59;5.00;;;2.38;;
56299;SDS011;42209;6.376;-10.782;2023-05-07T14:54:56;2.90;;;1.92;;
56299;SDS011;42209;6.376;-10.782;2023-05-07T14:57:27;3.35;;;2.42;;
56299;SDS011;42209;6.376;-10.782;2023-05-07T14:59:59;3.15;;;2.00;;
56299;SDS011;42209;6.376;-10.782;2023-05-07T15:02:28;3.25;;;2.10;;
56299;SDS011;42209;6.376;-10.782;2023-05-07T15:04:58;4.70;;;2.45;;
56299;SDS011;42209;6.376;-10.782;2023-05-07T15:07:29;2.85;;;2.10;;
56299;SDS011;42209;6.376;-10.782;2023-05-07T15:09:57;5.75;;;2.45;;
56299;SDS011;42209;6.376;-10.782;2023-05-07T15:12:27;4.32;;;2.15;;
56299;SDS011;42209;6.376;-10.782;2023-05-07T15:17:24;2.92;;;1.83;;
56299;SDS011;42209;6.376;-10.782;2023-05-07T15:19:53;3.63;;;2.17;;
56299;SDS011;42209;6.376;-10.782;2023-05-07T15:22:21;3.45;;;1.85;;
56299;SDS011;42209;6.376;-10.782;2023-05-07T15:24:50;2.55;;;1.95;;
56299;SDS011;42209;6.376;-10.782;2023-05-07T15:27:18;1.92;;;1.35;;
56299;SDS011;42209;6.376;-10.782;2023-05-07T15:29:47;3.47;;;1.98;;
56299;SDS011;42209;6.376;-10.782;2023-05-07T15:32:15;2.22;;;1.40;;
56299;SDS011;42209;6.376;-10.782;2023-05-07T15:34:44;2.63;;;1.63;;
56299;SDS011;42209;6.376;-10.782;2023-05-07T15:39:40;3.38;;;1.58;;
56299;SDS011;42209;6.376;-10.782;2023-05-07T15:44:37;1.83;;;1.55;;
56299;SDS011;42209;6.376;-10.782;2023-05-07T15:47:06;1.80;;;1.38;;
56299;SDS011;42209;6.376;-10.782;2023-05-07T15:49:34;4.85;;;2.13;;
56299;SDS011;42209;6.376;-10.782;2023-05-07T15:52:03;2.85;;;1.65;;
56299;SDS011;42209;6.376;-10.782;2023-05-07T15:57:00;3.67;;;1.48;;
56299;SDS011;42209;6.376;-10.782;2023-05-07T15:59:28;2.65;;;1.40;;
56299;SDS011;42209;6.376;-10.782;2023-05-07T16:01:56;2.10;;;1.70;;
56299;SDS011;42209;6.376;-10.782;2023-05-07T16:04:25;2.33;;;1.42;;
56299;SDS011;42209;6.376;-10.782;2023-05-07T16:09:22;3.13;;;1.80;;
56299;SDS011;42209;6.376;-10.782;2023-05-07T16:11:50;5.28;;;1.17;;